createdAt,value
2019-02-21T00:00:48.161Z,0.00
2019-02-21T00:01:48.159Z,0.00
2019-02-21T00:02:48.146Z,0.00
2019-02-21T00:03:48.152Z,0.00
2019-02-21T00:04:48.129Z,0.00
2019-02-21T00:05:48.108Z,0.00
2019-02-21T00:06:48.099Z,0.00
2019-02-21T00:07:48.089Z,0.00
2019-02-21T00:08:48.103Z,0.00
2019-02-21T00:09:48.075Z,0.00
2019-02-21T00:10:48.065Z,0.00
2019-02-21T00:11:48.052Z,0.00
2019-02-21T00:12:48.040Z,0.00
2019-02-21T00:13:48.023Z,0.00
2019-02-21T00:14:48.037Z,0.00
2019-02-21T00:15:48.007Z,0.00
2019-02-21T00:16:47.997Z,0.00
2019-02-21T00:17:47.980Z,0.00
2019-02-21T00:18:47.979Z,0.00
2019-02-21T00:19:47.964Z,0.00
2019-02-21T00:20:47.982Z,0.00
2019-02-21T00:21:47.944Z,0.00
2019-02-21T00:22:47.931Z,0.00
2019-02-21T00:23:47.920Z,0.00
2019-02-21T00:24:47.913Z,0.00
2019-02-21T00:25:47.922Z,0.00
2019-02-21T00:26:47.887Z,0.00
2019-02-21T00:27:47.875Z,0.00
2019-02-21T00:28:47.864Z,0.00
2019-02-21T00:29:47.860Z,0.00
2019-02-21T00:30:47.850Z,0.00
2019-02-21T00:31:47.851Z,0.00
2019-02-21T00:32:47.819Z,0.00
2019-02-21T00:33:47.816Z,0.00
2019-02-21T00:34:47.807Z,0.00
2019-02-21T00:35:47.858Z,0.00
2019-02-21T00:36:47.800Z,0.00
2019-02-21T00:37:47.766Z,0.00
2019-02-21T00:38:47.759Z,0.00
2019-02-21T00:39:47.747Z,0.00
2019-02-21T00:40:47.735Z,0.00
2019-02-21T00:41:47.754Z,0.00
2019-02-21T00:42:47.717Z,0.00
2019-02-21T00:43:47.710Z,0.00
2019-02-21T00:44:47.698Z,0.00
2019-02-21T00:45:47.712Z,0.00
2019-02-21T00:46:47.672Z,0.00
2019-02-21T00:47:47.681Z,0.00
2019-02-21T00:48:47.657Z,0.00
2019-02-21T00:49:47.640Z,0.00
2019-02-21T00:50:47.630Z,0.00
2019-02-21T00:51:47.636Z,0.00
2019-02-21T00:52:47.606Z,0.00
2019-02-21T00:53:47.609Z,0.00
2019-02-21T00:54:47.593Z,0.00
2019-02-21T00:55:47.588Z,0.00
2019-02-21T00:56:47.665Z,0.00
2019-02-21T00:57:47.608Z,0.00
2019-02-21T00:58:47.542Z,0.00
2019-02-21T00:59:47.534Z,0.00
2019-02-21T01:00:47.521Z,0.00
2019-02-21T01:01:47.517Z,0.00
2019-02-21T01:02:47.533Z,0.00
2019-02-21T01:03:47.508Z,0.00
2019-02-21T01:04:47.478Z,0.00
2019-02-21T01:05:47.475Z,0.00
2019-02-21T01:06:47.465Z,0.00
2019-02-21T01:07:47.452Z,0.00
2019-02-21T01:08:47.462Z,0.00
2019-02-21T01:09:47.475Z,0.00
2019-02-21T01:10:47.416Z,0.00
2019-02-21T01:11:47.503Z,0.00
2019-02-21T01:12:47.393Z,0.00
2019-02-21T01:13:47.445Z,0.00
2019-02-21T01:14:47.377Z,0.00
2019-02-21T01:15:47.459Z,0.00
2019-02-21T01:16:47.357Z,0.00
2019-02-21T01:17:47.481Z,0.00
2019-02-21T01:18:47.330Z,0.00
2019-02-21T01:19:47.488Z,0.00
2019-02-21T01:20:47.312Z,0.00
2019-02-21T01:21:47.314Z,0.00
2019-02-21T01:22:47.286Z,0.00
2019-02-21T01:23:47.304Z,0.00
2019-02-21T01:24:47.291Z,0.00
2019-02-21T01:25:47.280Z,0.00
2019-02-21T01:26:47.246Z,0.00
2019-02-21T01:27:47.234Z,0.00
2019-02-21T01:28:47.227Z,0.00
2019-02-21T01:29:47.221Z,0.00
2019-02-21T01:30:56.682Z,0.00
2019-02-21T01:31:48.189Z,0.00
2019-02-21T01:32:47.225Z,0.00
2019-02-21T01:33:47.187Z,0.00
2019-02-21T01:34:47.161Z,0.00
2019-02-21T01:35:47.173Z,0.00
2019-02-21T01:36:47.137Z,0.00
2019-02-21T01:37:47.131Z,0.00
2019-02-21T01:38:47.118Z,0.00
2019-02-21T01:39:47.111Z,0.00
2019-02-21T01:40:47.099Z,0.00
2019-02-21T01:41:47.107Z,0.00
2019-02-21T01:42:47.078Z,0.00
2019-02-21T01:43:47.063Z,0.00
2019-02-21T01:44:47.058Z,0.00
2019-02-21T01:45:47.045Z,0.00
2019-02-21T01:46:47.048Z,0.00
2019-02-21T01:47:47.059Z,0.00
2019-02-21T01:48:47.014Z,0.00
2019-02-21T01:49:47.059Z,0.00
2019-02-21T01:50:46.987Z,0.00
2019-02-21T01:51:46.985Z,0.00
2019-02-21T01:52:47.034Z,0.00
2019-02-21T01:53:46.954Z,0.00
2019-02-21T01:54:46.961Z,0.00
2019-02-21T01:55:46.960Z,0.00
2019-02-21T01:56:46.919Z,0.00
2019-02-21T01:57:46.915Z,0.00
2019-02-21T01:58:46.972Z,0.00
2019-02-21T01:59:46.890Z,0.00
2019-02-21T02:00:47.083Z,0.00
2019-02-21T02:01:46.868Z,0.00
2019-02-21T02:02:46.884Z,0.00
2019-02-21T02:03:46.882Z,0.00
2019-02-21T02:04:46.852Z,0.00
2019-02-21T02:05:46.829Z,0.00
2019-02-21T02:06:46.816Z,0.00
2019-02-21T02:07:46.803Z,0.00
2019-02-21T02:08:46.789Z,0.00
2019-02-21T02:09:46.809Z,0.00
2019-02-21T02:10:46.773Z,0.00
2019-02-21T02:11:46.795Z,0.00
2019-02-21T02:12:46.752Z,0.00
2019-02-21T02:13:46.734Z,0.00
2019-02-21T02:14:46.726Z,0.00
2019-02-21T02:15:46.740Z,0.00
2019-02-21T02:16:46.702Z,0.00
2019-02-21T02:17:46.702Z,0.00
2019-02-21T02:18:46.685Z,0.00
2019-02-21T02:19:46.675Z,0.00
2019-02-21T02:20:46.666Z,0.00
2019-02-21T02:21:46.678Z,0.00
2019-02-21T02:22:46.640Z,0.00
2019-02-21T02:23:46.641Z,0.00
2019-02-21T02:24:46.633Z,0.00
2019-02-21T02:25:46.611Z,0.00
2019-02-21T02:26:46.614Z,0.00
2019-02-21T02:27:46.592Z,0.00
2019-02-21T02:28:46.574Z,0.00
2019-02-21T02:29:46.569Z,0.00
2019-02-21T02:30:46.557Z,0.00
2019-02-21T02:31:46.587Z,0.00
2019-02-21T02:32:46.600Z,0.00
2019-02-21T02:33:46.564Z,0.00
2019-02-21T02:34:46.512Z,0.00
2019-02-21T02:35:46.500Z,0.00
2019-02-21T02:36:46.494Z,0.00
2019-02-21T02:37:46.484Z,0.00
2019-02-21T02:38:46.493Z,0.00
2019-02-21T02:39:46.456Z,0.00
2019-02-21T02:40:46.476Z,0.00
2019-02-21T02:41:46.442Z,0.00
2019-02-21T02:42:46.428Z,0.00
2019-02-21T02:43:46.543Z,0.00
2019-02-21T02:44:46.409Z,0.00
2019-02-21T02:45:46.411Z,0.00
2019-02-21T02:46:46.385Z,0.00
2019-02-21T02:47:46.471Z,0.00
2019-02-21T02:48:46.386Z,0.00
2019-02-21T02:49:46.465Z,0.00
2019-02-21T02:50:46.349Z,0.00
2019-02-21T02:51:46.333Z,0.00
2019-02-21T02:52:46.329Z,0.00
2019-02-21T02:53:46.316Z,0.00
2019-02-21T02:54:46.297Z,0.00
2019-02-21T02:55:46.321Z,0.00
2019-02-21T02:56:46.282Z,0.00
2019-02-21T02:57:46.264Z,0.00
2019-02-21T02:58:46.258Z,0.00
2019-02-21T02:59:46.250Z,0.00
2019-02-21T03:00:46.232Z,0.00
2019-02-21T03:01:46.246Z,0.00
2019-02-21T03:02:46.217Z,0.00
2019-02-21T03:03:46.226Z,0.00
2019-02-21T03:04:46.236Z,0.00
2019-02-21T03:05:46.183Z,0.00
2019-02-21T03:06:46.188Z,0.00
2019-02-21T03:07:46.162Z,0.00
2019-02-21T03:08:46.168Z,0.00
2019-02-21T03:09:46.145Z,0.00
2019-02-21T03:10:46.198Z,0.00
2019-02-21T03:11:46.171Z,0.00
2019-02-21T03:12:46.107Z,0.00
2019-02-21T03:13:46.099Z,0.00
2019-02-21T03:14:46.108Z,0.00
2019-02-21T03:15:46.079Z,0.00
2019-02-21T03:16:46.083Z,0.00
2019-02-21T03:17:46.058Z,0.00
2019-02-21T03:18:46.068Z,0.00
2019-02-21T03:19:46.103Z,0.00
2019-02-21T03:20:46.020Z,0.00
2019-02-21T03:21:46.012Z,0.00
2019-02-21T03:22:46.077Z,0.00
2019-02-21T03:23:45.993Z,0.00
2019-02-21T03:24:45.996Z,0.00
2019-02-21T03:25:45.997Z,0.00
2019-02-21T03:26:45.966Z,0.00
2019-02-21T03:27:45.968Z,0.00
2019-02-21T03:28:45.936Z,0.00
2019-02-21T03:29:45.948Z,0.00
2019-02-21T03:30:45.913Z,0.00
2019-02-21T03:31:54.181Z,0.00
2019-02-21T03:32:46.904Z,0.00
2019-02-21T03:33:45.982Z,0.00
2019-02-21T03:34:45.893Z,0.00
2019-02-21T03:35:45.889Z,0.00
2019-02-21T03:36:45.885Z,0.00
2019-02-21T03:37:45.932Z,0.00
2019-02-21T03:38:45.828Z,0.00
2019-02-21T03:39:45.834Z,0.00
2019-02-21T03:40:45.808Z,0.00
2019-02-21T03:41:45.797Z,0.00
2019-02-21T03:42:45.793Z,0.00
2019-02-21T03:43:45.771Z,0.00
2019-02-21T03:44:45.782Z,0.00
2019-02-21T03:45:45.754Z,0.00
2019-02-21T03:46:45.746Z,0.00
2019-02-21T03:47:45.748Z,0.00
2019-02-21T03:48:45.742Z,0.00
2019-02-21T03:49:45.755Z,0.00
2019-02-21T03:50:45.698Z,0.00
2019-02-21T03:51:45.687Z,0.00
2019-02-21T03:52:45.679Z,0.00
2019-02-21T03:53:45.669Z,0.00
2019-02-21T03:54:45.699Z,0.00
2019-02-21T03:55:45.663Z,0.00
2019-02-21T03:56:45.665Z,0.00
2019-02-21T03:57:45.625Z,0.00
2019-02-21T03:58:45.610Z,0.00
2019-02-21T03:59:45.610Z,0.00
2019-02-21T04:00:45.626Z,0.00
2019-02-21T04:01:45.580Z,0.00
2019-02-21T04:02:45.569Z,0.00
2019-02-21T04:03:45.558Z,0.00
2019-02-21T04:04:45.586Z,0.00
2019-02-21T04:05:45.586Z,0.00
2019-02-21T04:06:45.549Z,0.00
2019-02-21T04:07:45.522Z,0.00
2019-02-21T04:08:45.515Z,0.00
2019-02-21T04:09:45.494Z,0.00
2019-02-21T04:10:45.499Z,0.00
2019-02-21T04:11:45.472Z,0.00
2019-02-21T04:12:45.463Z,0.00
2019-02-21T04:13:45.474Z,0.00
2019-02-21T04:14:45.446Z,0.00
2019-02-21T04:15:45.462Z,0.00
2019-02-21T04:16:45.434Z,0.00
2019-02-21T04:17:45.447Z,0.00
2019-02-21T04:18:45.403Z,0.00
2019-02-21T04:19:45.393Z,0.00
2019-02-21T04:20:45.403Z,0.00
2019-02-21T04:21:45.366Z,0.00
2019-02-21T04:22:45.352Z,0.00
2019-02-21T04:23:45.364Z,0.00
2019-02-21T04:24:45.334Z,0.00
2019-02-21T04:25:45.355Z,0.00
2019-02-21T04:26:45.353Z,0.00
2019-02-21T04:27:45.330Z,0.00
2019-02-21T04:28:45.919Z,0.00
2019-02-21T04:29:45.290Z,0.00
2019-02-21T04:30:45.267Z,0.00
2019-02-21T04:31:45.366Z,0.00
2019-02-21T04:32:45.276Z,0.00
2019-02-21T04:33:45.330Z,0.00
2019-02-21T04:34:45.225Z,0.00
2019-02-21T04:35:45.231Z,0.00
2019-02-21T04:36:45.203Z,0.00
2019-02-21T04:37:45.197Z,0.00
2019-02-21T04:38:45.246Z,0.00
2019-02-21T04:39:45.178Z,0.00
2019-02-21T04:40:45.189Z,0.00
2019-02-21T04:41:45.155Z,0.00
2019-02-21T04:42:45.169Z,0.00
2019-02-21T04:43:45.127Z,0.00
2019-02-21T04:44:45.119Z,0.00
2019-02-21T04:45:45.120Z,0.00
2019-02-21T04:46:45.120Z,0.00
2019-02-21T04:47:45.092Z,0.00
2019-02-21T04:48:45.077Z,0.00
2019-02-21T04:49:45.068Z,0.00
2019-02-21T04:50:45.060Z,0.00
2019-02-21T04:51:45.078Z,0.00
2019-02-21T04:52:45.040Z,0.00
2019-02-21T04:53:45.024Z,0.00
2019-02-21T04:54:45.011Z,0.00
2019-02-21T04:55:45.000Z,0.00
2019-02-21T04:56:44.990Z,0.00
2019-02-21T04:57:45.000Z,0.00
2019-02-21T04:58:44.975Z,0.00
2019-02-21T04:59:44.965Z,0.00
2019-02-21T05:00:44.950Z,0.00
2019-02-21T05:01:44.964Z,0.00
2019-02-21T05:02:44.941Z,0.00
2019-02-21T05:03:44.955Z,0.00
2019-02-21T05:04:44.907Z,0.00
2019-02-21T05:05:44.899Z,0.00
2019-02-21T05:06:44.899Z,0.00
2019-02-21T05:07:44.924Z,0.00
2019-02-21T05:08:44.863Z,0.00
2019-02-21T05:09:57.006Z,0.00
2019-02-21T05:10:45.853Z,0.00
2019-02-21T05:11:44.859Z,0.00
2019-02-21T05:12:44.823Z,0.00
2019-02-21T05:13:44.809Z,0.00
2019-02-21T05:14:44.810Z,0.00
2019-02-21T05:15:44.785Z,0.00
2019-02-21T05:16:44.848Z,0.00
2019-02-21T05:17:44.791Z,0.00
2019-02-21T05:18:44.834Z,0.00
2019-02-21T05:19:44.745Z,0.00
2019-02-21T05:20:44.829Z,0.00
2019-02-21T05:21:44.726Z,0.00
2019-02-21T05:22:44.740Z,0.00
2019-02-21T05:23:44.708Z,0.00
2019-02-21T05:24:44.695Z,0.00
2019-02-21T05:25:44.685Z,0.00
2019-02-21T05:26:44.672Z,0.00
2019-02-21T05:27:44.657Z,0.00
2019-02-21T05:28:44.673Z,0.00
2019-02-21T05:29:44.642Z,0.00
2019-02-21T05:30:44.639Z,0.00
2019-02-21T05:31:44.623Z,0.00
2019-02-21T05:32:44.628Z,0.00
2019-02-21T05:33:44.605Z,0.00
2019-02-21T05:34:44.584Z,0.00
2019-02-21T05:35:44.579Z,0.00
2019-02-21T05:36:44.568Z,0.00
2019-02-21T05:37:44.599Z,0.00
2019-02-21T05:38:44.542Z,0.00
2019-02-21T05:39:44.565Z,0.00
2019-02-21T05:40:44.527Z,0.00
2019-02-21T05:41:44.545Z,0.00
2019-02-21T05:42:44.511Z,0.00
2019-02-21T05:43:47.200Z,0.00
2019-02-21T05:44:44.481Z,0.00
2019-02-21T05:45:46.824Z,0.00
2019-02-21T05:46:44.455Z,0.00
2019-02-21T05:47:44.513Z,0.00
2019-02-21T05:48:44.480Z,0.00
2019-02-21T05:49:44.432Z,0.00
2019-02-21T05:50:44.420Z,0.00
2019-02-21T05:51:44.402Z,0.00
2019-02-21T05:52:44.414Z,0.00
2019-02-21T05:53:44.405Z,0.00
2019-02-21T05:54:44.379Z,0.00
2019-02-21T05:55:44.369Z,0.00
2019-02-21T05:56:44.373Z,0.00
2019-02-21T05:57:44.345Z,0.00
2019-02-21T05:58:44.329Z,0.00
2019-02-21T05:59:44.318Z,0.00
2019-02-21T06:00:44.309Z,0.00
2019-02-21T06:01:44.317Z,0.00
2019-02-21T06:02:53.191Z,4.00
2019-02-21T06:03:45.280Z,4.00
2019-02-21T06:04:44.292Z,4.00
2019-02-21T06:05:44.256Z,4.00
2019-02-21T06:06:44.292Z,4.00
2019-02-21T06:07:44.242Z,8.00
2019-02-21T06:08:44.310Z,4.00
2019-02-21T06:09:44.215Z,8.00
2019-02-21T06:10:44.267Z,8.00
2019-02-21T06:11:44.211Z,12.00
2019-02-21T06:12:44.246Z,16.00
2019-02-21T06:13:44.792Z,16.00
2019-02-21T06:14:44.187Z,20.00
2019-02-21T06:15:44.156Z,24.00
2019-02-21T06:16:44.344Z,28.00
2019-02-21T06:17:44.130Z,32.00
2019-02-21T06:18:44.206Z,40.00
2019-02-21T06:19:44.105Z,44.00
2019-02-21T06:20:44.109Z,56.00
2019-02-21T06:21:44.091Z,60.00
2019-02-21T06:22:44.124Z,76.00
2019-02-21T06:23:44.106Z,84.00
2019-02-21T06:24:44.488Z,96.00
2019-02-21T06:25:51.445Z,108.00
2019-02-21T06:26:45.043Z,124.00
2019-02-21T06:27:44.066Z,136.00
2019-02-21T06:28:44.020Z,152.00
2019-02-21T06:29:44.064Z,164.00
2019-02-21T06:30:44.015Z,180.00
2019-02-21T06:31:44.005Z,196.00
2019-02-21T06:32:43.968Z,216.00
2019-02-21T06:33:43.960Z,232.00
2019-02-21T06:34:43.976Z,252.00
2019-02-21T06:35:44.565Z,272.00
2019-02-21T06:36:43.957Z,288.00
2019-02-21T06:37:43.949Z,308.00
2019-02-21T06:38:43.963Z,324.00
2019-02-21T06:39:43.983Z,348.00
2019-02-21T06:40:43.972Z,368.00
2019-02-21T06:41:43.901Z,392.00
2019-02-21T06:42:43.970Z,420.00
2019-02-21T06:43:43.935Z,448.00
2019-02-21T06:44:43.862Z,480.00
2019-02-21T06:45:43.863Z,516.00
2019-02-21T06:46:43.888Z,552.00
2019-02-21T06:47:43.875Z,588.00
2019-02-21T06:48:43.802Z,628.00
2019-02-21T06:49:43.893Z,668.00
2019-02-21T06:50:43.839Z,716.00
2019-02-21T06:51:44.160Z,768.00
2019-02-21T06:52:43.848Z,824.00
2019-02-21T06:53:43.747Z,884.00
2019-02-21T06:54:43.864Z,948.00
2019-02-21T06:55:43.866Z,1008.00
2019-02-21T06:56:43.870Z,1056.00
2019-02-21T06:57:44.753Z,1100.00
2019-02-21T06:58:43.705Z,1148.00
2019-02-21T06:59:45.421Z,1200.00
2019-02-21T07:00:46.172Z,1240.00
2019-02-21T07:01:43.726Z,1280.00
2019-02-21T07:02:43.666Z,1332.00
2019-02-21T07:03:43.722Z,1384.00
2019-02-21T07:04:43.652Z,1444.00
2019-02-21T07:05:43.621Z,1512.00
2019-02-21T07:06:43.613Z,1580.00
2019-02-21T07:07:43.621Z,1660.00
2019-02-21T07:08:43.705Z,1728.00
2019-02-21T07:09:43.802Z,1784.00
2019-02-21T07:10:43.560Z,1844.00
2019-02-21T07:11:45.944Z,1904.00
2019-02-21T07:12:43.547Z,1964.00
2019-02-21T07:13:43.561Z,2016.00
2019-02-21T07:14:43.536Z,2072.00
2019-02-21T07:15:43.552Z,2148.00
2019-02-21T07:16:43.956Z,2244.00
2019-02-21T07:17:49.239Z,2368.00
2019-02-21T07:18:44.522Z,2504.00
2019-02-21T07:19:43.554Z,2660.00
2019-02-21T07:20:43.527Z,2824.00
2019-02-21T07:21:43.811Z,2960.00
2019-02-21T07:22:43.485Z,3056.00
2019-02-21T07:23:43.975Z,3108.00
2019-02-21T07:24:43.420Z,3136.00
2019-02-21T07:25:43.418Z,3156.00
2019-02-21T07:26:43.507Z,3184.00
2019-02-21T07:27:43.418Z,3216.00
2019-02-21T07:28:43.412Z,3248.00
2019-02-21T07:29:43.361Z,3276.00
2019-02-21T07:30:43.351Z,3276.00
2019-02-21T07:31:43.379Z,3276.00
2019-02-21T07:32:43.372Z,3288.00
2019-02-21T07:33:43.670Z,3320.00
2019-02-21T07:34:43.516Z,3364.00
2019-02-21T07:35:43.325Z,3352.00
2019-02-21T07:36:43.868Z,3332.00
2019-02-21T07:37:43.293Z,3308.00
2019-02-21T07:38:43.312Z,3308.00
2019-02-21T07:39:43.324Z,3336.00
2019-02-21T07:40:43.388Z,3356.00
2019-02-21T07:41:43.444Z,3428.00
2019-02-21T07:42:43.374Z,3500.00
2019-02-21T07:43:43.326Z,3536.00
2019-02-21T07:44:45.322Z,3520.00
2019-02-21T07:45:43.341Z,3504.00
2019-02-21T07:46:43.199Z,3528.00
2019-02-21T07:47:43.205Z,3612.00
2019-02-21T07:48:43.300Z,3616.00
2019-02-21T07:49:43.156Z,3688.00
2019-02-21T07:50:43.138Z,3732.00
2019-02-21T07:51:43.145Z,3668.00
2019-02-21T07:52:43.140Z,3572.00
2019-02-21T07:53:43.244Z,3564.00
2019-02-21T07:54:43.096Z,3596.00
2019-02-21T07:55:43.098Z,3664.00
2019-02-21T07:56:43.094Z,3772.00
2019-02-21T07:57:43.127Z,3880.00
2019-02-21T07:58:43.051Z,3980.00
2019-02-21T07:59:43.720Z,4028.00
2019-02-21T08:00:43.043Z,4152.00
2019-02-21T08:01:43.043Z,4136.00
2019-02-21T08:02:43.065Z,4052.00
2019-02-21T08:03:45.923Z,4016.00
2019-02-21T08:04:42.987Z,3960.00
2019-02-21T08:05:43.348Z,3892.00
2019-02-21T08:06:43.049Z,3884.00
2019-02-21T08:07:43.017Z,3920.00
2019-02-21T08:08:44.924Z,4032.00
2019-02-21T08:09:42.993Z,4216.00
2019-02-21T08:10:42.919Z,4444.00
2019-02-21T08:11:42.961Z,4708.00
2019-02-21T08:12:42.937Z,4988.00
2019-02-21T08:13:42.934Z,5268.00
2019-02-21T08:14:43.459Z,5620.00
2019-02-21T08:15:43.284Z,6076.00
2019-02-21T08:16:42.894Z,6724.00
2019-02-21T08:17:42.919Z,7512.00
2019-02-21T08:18:43.253Z,8304.00
2019-02-21T08:19:43.014Z,8712.00
2019-02-21T08:20:42.874Z,8936.00
2019-02-21T08:21:43.601Z,9172.00
2019-02-21T08:22:42.914Z,9324.00
2019-02-21T08:23:50.551Z,9488.00
2019-02-21T08:24:43.939Z,10076.00
2019-02-21T08:25:43.089Z,10692.00
2019-02-21T08:26:42.852Z,11160.00
2019-02-21T08:27:42.776Z,11304.00
2019-02-21T08:28:42.832Z,10876.00
2019-02-21T08:29:42.767Z,9804.00
2019-02-21T08:30:42.775Z,8916.00
2019-02-21T08:31:42.963Z,8216.00
2019-02-21T08:32:42.919Z,7684.00
2019-02-21T08:33:45.622Z,7240.00
2019-02-21T08:34:43.803Z,7040.00
2019-02-21T08:35:42.676Z,7204.00
2019-02-21T08:36:42.640Z,7624.00
2019-02-21T08:37:42.629Z,8080.00
2019-02-21T08:38:42.627Z,8532.00
2019-02-21T08:39:42.634Z,9208.00
2019-02-21T08:40:42.597Z,9552.00
2019-02-21T08:41:42.583Z,9656.00
2019-02-21T08:42:42.573Z,9332.00
2019-02-21T08:43:42.561Z,8716.00
2019-02-21T08:44:42.574Z,8228.00
2019-02-21T08:45:42.572Z,7872.00
2019-02-21T08:46:42.574Z,8360.00
2019-02-21T08:47:42.519Z,8528.00
2019-02-21T08:48:42.509Z,8780.00
2019-02-21T08:49:42.517Z,9100.00
2019-02-21T08:50:42.493Z,9428.00
2019-02-21T08:51:42.480Z,9748.00
2019-02-21T08:52:42.534Z,9948.00
2019-02-21T08:53:42.539Z,10076.00
2019-02-21T08:54:42.461Z,9992.00
2019-02-21T08:55:42.431Z,9940.00
2019-02-21T08:56:42.425Z,10108.00
2019-02-21T08:57:42.413Z,10236.00
2019-02-21T08:58:42.405Z,10316.00
2019-02-21T08:59:42.481Z,10452.00
2019-02-21T09:00:42.381Z,10484.00
2019-02-21T09:01:42.387Z,10572.00
2019-02-21T09:02:42.355Z,10308.00
2019-02-21T09:03:42.352Z,10640.00
2019-02-21T09:04:42.358Z,11072.00
2019-02-21T09:05:42.325Z,11624.00
2019-02-21T09:06:42.314Z,12292.00
2019-02-21T09:07:42.347Z,12712.00
2019-02-21T09:08:42.298Z,12748.00
2019-02-21T09:09:42.288Z,12540.00
2019-02-21T09:10:42.291Z,11988.00
2019-02-21T09:11:42.488Z,11296.00
2019-02-21T09:12:42.315Z,10464.00
2019-02-21T09:13:42.341Z,9892.00
2019-02-21T09:14:42.361Z,9756.00
2019-02-21T09:15:42.797Z,9416.00
2019-02-21T09:16:42.626Z,9144.00
2019-02-21T09:17:42.277Z,8828.00
2019-02-21T09:18:42.215Z,8672.00
2019-02-21T09:19:42.452Z,9008.00
2019-02-21T09:20:42.181Z,9320.00
2019-02-21T09:21:42.233Z,9716.00
2019-02-21T09:22:42.167Z,10516.00
2019-02-21T09:23:42.151Z,11436.00
2019-02-21T09:24:42.618Z,10980.00
2019-02-21T09:25:42.108Z,10280.00
2019-02-21T09:26:42.117Z,9820.00
2019-02-21T09:27:42.121Z,9316.00
2019-02-21T09:28:42.075Z,8716.00
2019-02-21T09:29:42.073Z,8156.00
2019-02-21T09:30:42.081Z,7504.00
2019-02-21T09:31:42.103Z,6984.00
2019-02-21T09:32:42.169Z,6672.00
2019-02-21T09:33:43.754Z,6504.00
2019-02-21T09:34:42.017Z,6276.00
2019-02-21T09:35:42.036Z,5952.00
2019-02-21T09:36:42.003Z,5852.00
2019-02-21T09:37:41.981Z,5880.00
2019-02-21T09:38:41.998Z,5900.00
2019-02-21T09:39:42.011Z,5924.00
2019-02-21T09:40:42.766Z,6020.00
2019-02-21T09:41:41.935Z,5912.00
2019-02-21T09:42:42.024Z,5744.00
2019-02-21T09:43:41.930Z,5780.00
2019-02-21T09:44:41.903Z,5908.00
2019-02-21T09:45:42.338Z,6040.00
2019-02-21T09:46:41.879Z,6384.00
2019-02-21T09:47:41.893Z,6928.00
2019-02-21T09:48:41.909Z,7816.00
2019-02-21T09:49:41.856Z,8908.00
2019-02-21T09:50:41.874Z,10048.00
2019-02-21T09:51:41.825Z,11416.00
2019-02-21T09:52:41.814Z,13076.00
2019-02-21T09:53:41.812Z,15008.00
2019-02-21T09:54:41.799Z,17408.00
2019-02-21T09:55:41.804Z,18720.00
2019-02-21T09:56:52.092Z,18272.00
2019-02-21T09:57:42.758Z,16132.00
2019-02-21T09:58:41.747Z,13144.00
2019-02-21T09:59:41.736Z,11020.00
2019-02-21T10:00:41.752Z,10828.00
2019-02-21T10:01:41.729Z,11956.00
2019-02-21T10:02:42.182Z,13512.00
2019-02-21T10:03:44.124Z,15552.00
2019-02-21T10:04:41.695Z,17344.00
2019-02-21T10:05:41.702Z,17792.00
2019-02-21T10:06:41.678Z,17312.00
2019-02-21T10:07:41.658Z,16608.00
2019-02-21T10:08:41.653Z,14608.00
2019-02-21T10:09:41.642Z,12428.00
2019-02-21T10:10:41.685Z,10816.00
2019-02-21T10:11:41.660Z,9928.00
2019-02-21T10:12:41.658Z,9648.00
2019-02-21T10:13:41.596Z,9680.00
2019-02-21T10:14:41.582Z,9832.00
2019-02-21T10:15:41.571Z,10060.00
2019-02-21T10:16:41.586Z,10448.00
2019-02-21T10:17:41.584Z,11016.00
2019-02-21T10:18:41.535Z,11892.00
2019-02-21T10:19:41.520Z,12688.00
2019-02-21T10:20:41.512Z,12712.00
2019-02-21T10:21:41.502Z,12200.00
2019-02-21T10:22:41.515Z,11544.00
2019-02-21T10:23:42.244Z,10896.00
2019-02-21T10:24:41.472Z,10112.00
2019-02-21T10:25:41.459Z,9220.00
2019-02-21T10:26:41.513Z,8044.00
2019-02-21T10:27:41.493Z,7304.00
2019-02-21T10:28:41.436Z,7028.00
2019-02-21T10:29:41.440Z,7040.00
2019-02-21T10:30:41.419Z,7260.00
2019-02-21T10:31:41.452Z,7556.00
2019-02-21T10:32:41.383Z,7720.00
2019-02-21T10:33:46.862Z,7548.00
2019-02-21T10:34:43.359Z,7020.00
2019-02-21T10:35:41.363Z,6372.00
2019-02-21T10:36:41.371Z,5832.00
2019-02-21T10:37:41.329Z,5656.00
2019-02-21T10:38:41.315Z,6144.00
2019-02-21T10:39:41.329Z,7396.00
2019-02-21T10:40:41.300Z,9408.00
2019-02-21T10:41:41.304Z,11688.00
2019-02-21T10:42:41.273Z,12956.00
2019-02-21T10:43:41.272Z,13452.00
2019-02-21T10:44:41.251Z,13680.00
2019-02-21T10:45:47.760Z,13380.00
2019-02-21T10:46:42.233Z,12728.00
2019-02-21T10:47:41.222Z,11920.00
2019-02-21T10:48:41.211Z,11640.00
2019-02-21T10:49:41.197Z,11588.00
2019-02-21T10:50:41.206Z,11712.00
2019-02-21T10:51:41.224Z,12976.00
2019-02-21T10:52:41.720Z,14388.00
2019-02-21T10:53:41.171Z,14580.00
2019-02-21T10:54:41.148Z,16992.00
2019-02-21T10:55:41.129Z,19296.00
2019-02-21T10:56:41.122Z,19872.00
2019-02-21T10:57:41.151Z,20416.00
2019-02-21T10:58:41.108Z,21312.00
2019-02-21T10:59:46.547Z,14756.00
2019-02-21T11:00:42.246Z,13708.00
2019-02-21T11:01:41.066Z,14108.00
2019-02-21T11:02:41.081Z,20032.00
2019-02-21T11:03:41.049Z,22848.00
2019-02-21T11:04:42.234Z,20736.00
2019-02-21T11:05:41.025Z,26880.00
2019-02-21T11:06:41.019Z,18336.00
2019-02-21T11:07:41.024Z,20096.00
2019-02-21T11:08:41.012Z,18112.00
2019-02-21T11:09:40.979Z,17600.00
2019-02-21T11:10:40.984Z,20032.00
2019-02-21T11:11:40.963Z,20096.00
2019-02-21T11:12:41.009Z,19264.00
2019-02-21T11:13:40.938Z,19072.00
2019-02-21T11:14:47.437Z,19360.00
2019-02-21T11:15:42.254Z,23104.00
2019-02-21T11:16:40.962Z,19168.00
2019-02-21T11:17:40.922Z,19584.00
2019-02-21T11:18:40.887Z,22848.00
2019-02-21T11:19:40.877Z,19360.00
2019-02-21T11:20:40.864Z,21312.00
2019-02-21T11:21:40.855Z,19584.00
2019-02-21T11:22:40.867Z,17536.00
2019-02-21T11:23:40.893Z,18176.00
2019-02-21T11:24:40.820Z,14984.00
2019-02-21T11:25:40.825Z,15520.00
2019-02-21T11:26:40.835Z,14584.00
2019-02-21T11:27:40.806Z,15260.00
2019-02-21T11:28:40.860Z,16100.00
2019-02-21T11:29:40.767Z,17408.00
2019-02-21T11:30:40.762Z,17888.00
2019-02-21T11:31:40.794Z,18336.00
2019-02-21T11:32:40.735Z,18528.00
2019-02-21T11:33:40.824Z,18400.00
2019-02-21T11:34:40.709Z,18336.00
2019-02-21T11:35:40.712Z,18400.00
2019-02-21T11:36:40.687Z,18048.00
2019-02-21T11:37:45.602Z,17632.00
2019-02-21T11:38:41.710Z,17664.00
2019-02-21T11:39:40.671Z,17632.00
2019-02-21T11:40:40.695Z,17568.00
2019-02-21T11:41:40.692Z,17920.00
2019-02-21T11:42:40.682Z,18240.00
2019-02-21T11:43:40.803Z,18304.00
2019-02-21T11:44:40.764Z,18304.00
2019-02-21T11:45:40.715Z,17792.00
2019-02-21T11:46:40.590Z,17056.00
2019-02-21T11:47:40.572Z,16704.00
2019-02-21T11:48:40.580Z,16832.00
2019-02-21T11:49:40.594Z,17056.00
2019-02-21T11:50:40.562Z,17184.00
2019-02-21T11:51:40.534Z,17056.00
2019-02-21T11:52:40.526Z,17088.00
2019-02-21T11:53:40.542Z,17824.00
2019-02-21T11:54:40.564Z,17792.00
2019-02-21T11:55:40.485Z,16864.00
2019-02-21T11:56:40.475Z,16768.00
2019-02-21T11:57:40.468Z,16220.00
2019-02-21T11:58:40.468Z,16864.00
2019-02-21T11:59:40.456Z,17632.00
2019-02-21T12:00:40.450Z,18336.00
2019-02-21T12:01:40.455Z,19072.00
2019-02-21T12:02:40.418Z,19840.00
2019-02-21T12:03:40.437Z,20256.00
2019-02-21T12:04:40.403Z,20096.00
2019-02-21T12:05:40.376Z,19744.00
2019-02-21T12:06:40.434Z,19840.00
2019-02-21T12:07:40.357Z,19936.00
2019-02-21T12:08:40.360Z,19936.00
2019-02-21T12:09:40.372Z,19616.00
2019-02-21T12:10:40.326Z,19104.00
2019-02-21T12:11:40.382Z,18912.00
2019-02-21T12:12:40.334Z,19296.00
2019-02-21T12:13:40.318Z,19040.00
2019-02-21T12:14:40.287Z,18144.00
2019-02-21T12:15:40.279Z,17536.00
2019-02-21T12:16:40.354Z,17280.00
2019-02-21T12:17:42.399Z,17056.00
2019-02-21T12:18:40.238Z,16608.00
2019-02-21T12:19:40.290Z,17088.00
2019-02-21T12:20:40.244Z,17696.00
2019-02-21T12:21:40.276Z,18560.00
2019-02-21T12:22:40.240Z,19328.00
2019-02-21T12:23:40.210Z,19776.00
2019-02-21T12:24:40.243Z,19776.00
2019-02-21T12:25:40.162Z,18304.00
2019-02-21T12:26:40.237Z,16800.00
2019-02-21T12:27:40.334Z,15868.00
2019-02-21T12:28:40.275Z,15408.00
2019-02-21T12:29:40.210Z,14008.00
2019-02-21T12:30:40.156Z,12496.00
2019-02-21T12:31:40.195Z,11960.00
2019-02-21T12:32:40.113Z,10180.00
2019-02-21T12:33:40.083Z,11188.00
2019-02-21T12:34:40.096Z,13040.00
2019-02-21T12:35:40.066Z,14048.00
2019-02-21T12:36:40.181Z,14156.00